Time;durP1;ratioP1;P1;durP2;ratioP2;P2;SDS_P1;SDS_P2;PMS_P1;PMS_P2;Temp;Humidity;BMP_temperature;BMP_pressure;BME280_temperature;BME280_humidity;BME280_pressure;Samples;Min_cycle;Max_cycle;Signal;HPM_P1;HPM_P2
2022/10/19 00:01:20;;;;;;;7.82;6.90;;;13.50;99.90;;;;;;5079225;28;20179;-77
2022/10/19 00:03:48;;;;;;;7.03;6.43;;;13.30;99.90;;;;;;5086749;28;20186;-77
2022/10/19 00:06:25;;;;;;;7.00;6.30;;;13.20;99.90;;;;;;5086802;28;20217;-78
2022/10/19 00:08:56;;;;;;;8.43;6.60;;;13.20;99.90;;;;;;5084953;28;20687;-78
2022/10/19 00:11:23;;;;;;;7.38;6.72;;;13.20;99.90;;;;;;5094775;28;20206;-77
2022/10/19 00:13:52;;;;;;;8.07;5.78;;;13.20;99.90;;;;;;5089032;28;20174;-78
2022/10/19 00:16:19;;;;;;;7.50;6.75;;;13.10;99.90;;;;;;5086971;28;20180;-77
2022/10/19 00:18:45;;;;;;;6.57;5.97;;;13.10;99.90;;;;;;5082281;28;20273;-77
2022/10/19 00:21:14;;;;;;;8.70;7.07;;;12.90;99.90;;;;;;5087512;28;20677;-77
2022/10/19 00:23:40;;;;;;;9.82;6.60;;;12.80;99.90;;;;;;5082152;28;20191;-78
2022/10/19 00:26:06;;;;;;;7.18;6.43;;;12.80;99.90;;;;;;5086373;28;20228;-78
2022/10/19 00:28:32;;;;;;;6.68;6.00;;;12.80;99.90;;;;;;5085693;28;20206;-78
2022/10/19 00:31:02;;;;;;;10.93;8.57;;;12.70;99.90;;;;;;5081611;28;20661;-77
2022/10/19 00:33:27;;;;;;;14.43;10.68;;;12.70;99.90;;;;;;5078555;28;20174;-77
2022/10/19 00:35:53;;;;;;;12.43;10.13;;;12.80;99.90;;;;;;5089282;28;20197;-77
2022/10/19 00:38:21;;;;;;;33.60;13.43;;;12.90;99.90;;;;;;5085693;28;20191;-78
2022/10/19 00:40:48;;;;;;;33.00;12.82;;;13.00;99.90;;;;;;5081790;28;20239;-77
2022/10/19 00:43:22;;;;;;;31.73;14.48;;;13.10;99.90;;;;;;5082313;28;20194;-78
2022/10/19 00:45:48;;;;;;;42.13;14.52;;;13.10;99.90;;;;;;5087733;28;20209;-79
2022/10/19 00:48:19;;;;;;;17.08;12.88;;;13.10;99.90;;;;;;5088540;28;20546;-77
2022/10/19 00:50:48;;;;;;;21.08;12.90;;;13.10;99.90;;;;;;5083817;28;20257;-78
2022/10/19 00:53:13;;;;;;;18.08;12.48;;;13.20;99.90;;;;;;5085937;28;20226;-78
2022/10/19 00:55:40;;;;;;;14.00;11.40;;;13.20;99.90;;;;;;5090356;28;20666;-78
2022/10/19 00:58:07;;;;;;;12.30;11.10;;;13.30;99.90;;;;;;5085934;28;20179;-78
2022/10/19 01:00:33;;;;;;;10.02;9.00;;;13.30;99.90;;;;;;5078849;28;20190;-78
2022/10/19 01:03:00;;;;;;;9.05;8.13;;;13.40;99.90;;;;;;5089793;28;20179;-79
2022/10/19 01:05:27;;;;;;;9.40;8.60;;;13.40;99.90;;;;;;5087539;28;20194;-80
2022/10/19 01:07:53;;;;;;;11.05;9.43;;;13.40;99.90;;;;;;5087396;28;20195;-79
2022/10/19 01:10:29;;;;;;;9.15;7.25;;;13.30;99.90;;;;;;5085273;28;20240;-80
2022/10/19 01:13:09;;;;;;;7.55;6.78;;;13.30;99.90;;;;;;5081774;28;20175;-79
2022/10/19 01:15:43;;;;;;;7.57;6.57;;;13.10;99.90;;;;;;5095142;28;20202;-79
2022/10/19 01:18:27;;;;;;;7.78;7.07;;;13.00;99.90;;;;;;5093478;28;20175;-80
2022/10/19 01:21:07;;;;;;;7.75;7.05;;;12.90;99.90;;;;;;5088131;28;20559;-79
2022/10/19 01:24:03;;;;;;;7.65;6.95;;;12.90;99.90;;;;;;5090403;28;20594;-80
2022/10/19 01:26:41;;;;;;;7.57;6.93;;;12.80;99.90;;;;;;5109507;27;20170;-80
2022/10/19 01:29:51;;;;;;;7.55;6.90;;;12.70;99.90;;;;;;5093549;28;20175;-79
2022/10/19 01:32:36;;;;;;;7.95;7.30;;;12.70;99.90;;;;;;5083061;28;20637;-79
2022/10/19 01:35:16;;;;;;;8.30;7.63;;;12.70;99.90;;;;;;5089689;28;20288;-79
2022/10/19 01:37:55;;;;;;;8.43;7.65;;;12.70;99.90;;;;;;5086440;28;20640;-80
2022/10/19 01:40:41;;;;;;;8.02;7.28;;;12.70;99.90;;;;;;5088089;28;20221;-78
2022/10/19 01:43:33;;;;;;;7.15;6.55;;;12.70;99.90;;;;;;5080771;28;20198;-78
2022/10/19 01:46:14;;;;;;;8.63;7.90;;;12.80;99.90;;;;;;5085949;28;20203;-79
2022/10/19 01:48:49;;;;;;;8.90;8.13;;;12.80;99.90;;;;;;5088492;28;20199;-78
2022/10/19 01:51:24;;;;;;;8.70;7.80;;;12.80;99.90;;;;;;5088253;28;20171;-79
2022/10/19 01:53:53;;;;;;;9.95;8.45;;;12.90;99.90;;;;;;5091600;28;20554;-79
2022/10/19 01:56:24;;;;;;;11.68;8.70;;;12.80;99.90;;;;;;5094828;28;20206;-79
2022/10/19 01:58:52;;;;;;;8.93;8.13;;;12.80;99.90;;;;;;5086169;28;20199;-79
2022/10/19 02:01:23;;;;;;;9.20;8.27;;;12.80;99.90;;;;;;5090313;28;20186;-79
2022/10/19 02:03:50;;;;;;;9.48;8.63;;;12.80;99.90;;;;;;5091614;28;20556;-80
2022/10/19 02:06:16;;;;;;;9.32;8.38;;;12.80;99.90;;;;;;5091752;28;20185;-80
2022/10/19 02:08:47;;;;;;;9.35;8.27;;;12.80;99.90;;;;;;5096885;28;20209;-80
2022/10/19 02:11:14;;;;;;;8.32;7.60;;;12.80;99.90;;;;;;5092925;28;20180;-80
2022/10/19 02:13:42;;;;;;;9.30;8.40;;;12.80;99.90;;;;;;5100713;28;20174;-80
2022/10/19 02:16:20;;;;;;;10.38;9.38;;;12.80;99.90;;;;;;5095312;28;20651;-80
2022/10/19 02:18:52;;;;;;;9.30;8.48;;;12.80;99.90;;;;;;5094714;28;20174;-80
2022/10/19 02:21:18;;;;;;;9.88;7.95;;;12.80;99.90;;;;;;5095945;28;20236;-80
2022/10/19 02:23:45;;;;;;;9.50;8.60;;;12.70;99.90;;;;;;5086713;28;20183;-80
2022/10/19 02:26:11;;;;;;;9.00;8.10;;;12.70;99.90;;;;;;5098694;28;20198;-80
2022/10/19 02:28:37;;;;;;;9.38;8.52;;;12.80;99.90;;;;;;5098385;28;20198;-80
2022/10/19 02:31:03;;;;;;;9.65;8.70;;;12.80;99.90;;;;;;5089402;28;20186;-79
2022/10/19 02:33:30;;;;;;;8.68;7.88;;;12.80;99.90;;;;;;5091146;28;20253;-79
2022/10/19 02:35:57;;;;;;;9.57;8.68;;;12.80;99.90;;;;;;5090975;28;20171;-83
2022/10/19 02:38:23;;;;;;;8.65;7.93;;;12.90;99.90;;;;;;5098154;28;20337;-79
2022/10/19 02:41:16;;;;;;;8.98;8.18;;;12.90;99.90;;;;;;5080548;28;20179;-79
2022/10/19 02:43:48;;;;;;;11.85;9.20;;;12.90;99.90;;;;;;5082178;28;20637;-79
2022/10/19 02:46:47;;;;;;;9.27;8.40;;;13.00;99.90;;;;;;5098255;28;20195;-79
2022/10/19 02:49:13;;;;;;;11.27;8.50;;;12.90;99.90;;;;;;5081544;28;20210;-79
2022/10/19 02:52:00;;;;;;;9.23;8.32;;;12.80;99.90;;;;;;5085732;28;20573;-79
2022/10/19 02:54:27;;;;;;;10.10;9.10;;;12.80;99.90;;;;;;5088819;28;20202;-79
2022/10/19 02:56:53;;;;;;;9.38;8.38;;;12.80;99.90;;;;;;5089502;28;20179;-79
2022/10/19 02:59:26;;;;;;;11.00;8.82;;;12.80;99.90;;;;;;5088650;28;20178;-79
2022/10/19 03:01:52;;;;;;;9.52;8.50;;;12.80;99.90;;;;;;5078399;28;20176;-79
2022/10/19 03:04:18;;;;;;;8.75;7.95;;;12.90;99.90;;;;;;5083154;28;20256;-79
2022/10/19 03:06:43;;;;;;;10.43;9.43;;;12.90;99.90;;;;;;5091256;28;20261;-79
2022/10/19 03:09:09;;;;;;;13.43;8.25;;;12.90;99.90;;;;;;5087526;28;20234;-79
2022/10/19 03:11:35;;;;;;;9.27;8.45;;;12.90;99.90;;;;;;5084593;28;20176;-79
2022/10/19 03:14:01;;;;;;;11.50;8.95;;;13.00;99.90;;;;;;5090474;28;20201;-80
2022/10/19 03:16:26;;;;;;;10.13;9.20;;;13.00;99.90;;;;;;5097748;28;20182;-80
2022/10/19 03:18:53;;;;;;;10.63;9.45;;;13.00;99.90;;;;;;5092201;28;20332;-79
2022/10/19 03:21:19;;;;;;;15.27;9.13;;;12.90;99.90;;;;;;5085702;28;20252;-80
2022/10/19 03:23:45;;;;;;;10.45;9.45;;;13.00;99.90;;;;;;5099385;28;20174;-79
2022/10/19 03:26:16;;;;;;;10.65;9.55;;;12.90;99.90;;;;;;5092535;28;20193;-79
2022/10/19 03:28:42;;;;;;;11.27;10.13;;;12.80;99.90;;;;;;5092352;28;20207;-80
2022/10/19 03:31:07;;;;;;;9.60;8.68;;;12.80;99.90;;;;;;5093608;28;20171;-80
2022/10/19 03:33:33;;;;;;;9.82;8.93;;;12.70;99.90;;;;;;5100191;28;20178;-80
2022/10/19 03:36:32;;;;;;;9.77;8.77;;;12.80;99.90;;;;;;5086944;28;20428;-79
2022/10/19 03:39:01;;;;;;;11.20;10.10;;;12.80;99.90;;;;;;5075728;28;20190;-79
2022/10/19 03:41:28;;;;;;;12.35;10.65;;;12.90;99.90;;;;;;5084361;28;20208;-78
2022/10/19 03:43:55;;;;;;;10.57;9.57;;;12.80;99.90;;;;;;5091299;28;20668;-78
2022/10/19 03:46:21;;;;;;;11.48;10.30;;;12.80;99.90;;;;;;5088562;28;20209;-78
2022/10/19 03:48:47;;;;;;;11.05;9.95;;;12.80;99.90;;;;;;5089084;28;20209;-78
2022/10/19 03:51:16;;;;;;;11.55;10.52;;;12.70;99.90;;;;;;5089978;28;20736;-78
2022/10/19 03:53:44;;;;;;;11.40;10.23;;;12.80;99.90;;;;;;5090470;28;20182;-79
2022/10/19 03:56:15;;;;;;;11.82;10.23;;;12.80;99.90;;;;;;5087260;28;20556;-79
2022/10/19 03:58:48;;;;;;;11.43;10.00;;;12.80;99.90;;;;;;5082555;28;20183;-78
2022/10/19 04:01:20;;;;;;;10.70;9.65;;;12.80;99.90;;;;;;5075575;28;20252;-78
2022/10/19 04:03:45;;;;;;;12.02;10.73;;;12.80;99.90;;;;;;5079588;28;20179;-78
2022/10/19 04:06:16;;;;;;;11.45;10.35;;;12.80;99.90;;;;;;5082892;28;20262;-78
2022/10/19 04:08:43;;;;;;;11.68;10.50;;;12.80;99.90;;;;;;5085526;28;20199;-80
2022/10/19 04:11:13;;;;;;;12.25;10.27;;;12.80;99.90;;;;;;5087477;28;20174;-80
2022/10/19 04:13:39;;;;;;;13.18;10.65;;;12.80;99.90;;;;;;5078775;28;20254;-79
2022/10/19 04:16:06;;;;;;;10.38;9.40;;;12.90;99.90;;;;;;5085162;28;20179;-78
2022/10/19 04:18:31;;;;;;;12.45;11.15;;;12.90;99.90;;;;;;5082376;28;20185;-78
2022/10/19 04:21:02;;;;;;;10.60;9.60;;;12.90;99.90;;;;;;5081397;28;20182;-78
2022/10/19 04:23:30;;;;;;;13.70;11.20;;;12.90;99.90;;;;;;5088334;28;20584;-78
2022/10/19 04:26:03;;;;;;;11.13;9.75;;;12.80;99.90;;;;;;5080657;28;20217;-78
2022/10/19 04:28:30;;;;;;;11.52;10.43;;;12.80;99.90;;;;;;5083682;28;20202;-78
2022/10/19 04:30:56;;;;;;;11.45;10.38;;;12.90;99.90;;;;;;5089880;28;20170;-78
2022/10/19 04:33:21;;;;;;;10.85;9.75;;;12.80;99.90;;;;;;5084037;28;20184;-78
2022/10/19 04:35:47;;;;;;;12.98;11.07;;;12.80;99.90;;;;;;5090695;28;20206;-78
2022/10/19 04:38:13;;;;;;;12.68;11.35;;;12.80;99.90;;;;;;5087300;28;20186;-80
2022/10/19 04:40:38;;;;;;;13.07;11.60;;;12.80;99.90;;;;;;5089991;28;20649;-80
2022/10/19 04:43:04;;;;;;;10.57;9.57;;;12.70;99.90;;;;;;5090040;28;20186;-80
2022/10/19 04:45:31;;;;;;;12.52;9.65;;;12.70;99.90;;;;;;5089579;28;20226;-80
2022/10/19 04:47:56;;;;;;;10.48;9.38;;;12.70;99.90;;;;;;5087948;28;20203;-79
2022/10/19 04:50:23;;;;;;;9.57;8.35;;;12.60;99.90;;;;;;5079794;28;20256;-79
2022/10/19 04:52:49;;;;;;;11.30;10.10;;;12.60;99.90;;;;;;5080507;28;20492;-79
2022/10/19 04:55:15;;;;;;;11.25;10.13;;;12.50;99.90;;;;;;5083943;28;20314;-79
2022/10/19 04:57:41;;;;;;;11.55;10.35;;;12.40;99.90;;;;;;5087078;28;20178;-79
2022/10/19 05:00:07;;;;;;;12.95;9.85;;;12.30;99.90;;;;;;5087063;28;20203;-80
2022/10/19 05:02:33;;;;;;;10.40;9.50;;;12.20;99.90;;;;;;5087214;28;20191;-78
2022/10/19 05:04:58;;;;;;;10.65;9.60;;;12.30;99.90;;;;;;5090618;28;20194;-78
2022/10/19 05:07:24;;;;;;;9.90;8.90;;;12.30;99.90;;;;;;5086894;28;20198;-82
2022/10/19 05:09:50;;;;;;;10.60;9.63;;;12.40;99.90;;;;;;5089914;28;20183;-80
2022/10/19 05:12:15;;;;;;;11.98;10.73;;;12.40;99.90;;;;;;5085293;28;20179;-79
2022/10/19 05:14:41;;;;;;;10.52;9.18;;;12.50;99.90;;;;;;5086634;28;20195;-79
2022/10/19 05:17:07;;;;;;;11.10;9.98;;;12.30;99.90;;;;;;5091657;28;20183;-79
2022/10/19 05:19:32;;;;;;;10.65;9.55;;;12.40;99.90;;;;;;5090404;28;20648;-79
2022/10/19 05:21:58;;;;;;;10.35;9.32;;;12.40;99.90;;;;;;5089805;28;20201;-79
2022/10/19 05:24:24;;;;;;;11.27;9.77;;;12.40;99.90;;;;;;5088305;28;20202;-79
2022/10/19 05:26:49;;;;;;;12.50;10.02;;;12.30;99.90;;;;;;5089124;28;20509;-77
2022/10/19 05:29:15;;;;;;;12.75;9.52;;;12.30;99.90;;;;;;5084867;28;20673;-78
2022/10/19 05:31:41;;;;;;;10.65;9.55;;;12.40;99.90;;;;;;5084475;28;20181;-78
2022/10/19 05:34:07;;;;;;;9.90;8.38;;;12.40;99.90;;;;;;5088736;28;20560;-78
2022/10/19 05:36:35;;;;;;;11.43;9.00;;;12.50;99.90;;;;;;5094385;28;20559;-78
2022/10/19 05:39:14;;;;;;;10.07;9.10;;;12.50;99.90;;;;;;5094330;28;20178;-79
2022/10/19 05:41:42;;;;;;;10.50;9.50;;;12.50;99.90;;;;;;5089733;28;20181;-78
2022/10/19 05:44:19;;;;;;;10.85;9.75;;;12.50;99.90;;;;;;5087118;28;20191;-79
2022/10/19 05:46:44;;;;;;;10.10;9.10;;;12.40;99.90;;;;;;5085815;28;20178;-77
2022/10/19 05:49:11;;;;;;;14.02;10.10;;;12.40;99.90;;;;;;5085541;28;20603;-77
2022/10/19 05:51:37;;;;;;;11.07;9.88;;;12.40;99.90;;;;;;5090408;28;20669;-77
2022/10/19 05:54:07;;;;;;;10.75;9.65;;;12.50;99.90;;;;;;5085028;28;20607;-78
2022/10/19 05:56:33;;;;;;;10.65;9.55;;;12.50;99.90;;;;;;5102355;28;20179;-76
2022/10/19 05:59:01;;;;;;;10.45;9.38;;;12.40;99.90;;;;;;5083707;28;20237;-77
2022/10/19 06:01:28;;;;;;;10.48;9.48;;;12.40;99.90;;;;;;5084270;28;20248;-78
2022/10/19 06:03:55;;;;;;;11.38;9.35;;;12.50;99.90;;;;;;5086824;28;20198;-77
2022/10/19 06:06:21;;;;;;;8.30;7.60;;;12.50;99.90;;;;;;5084934;28;20191;-76
2022/10/19 06:08:48;;;;;;;10.20;9.20;;;12.60;99.90;;;;;;5094914;28;20670;-78
2022/10/19 06:11:19;;;;;;;10.02;9.00;;;12.70;99.90;;;;;;5084943;28;20676;-78
2022/10/19 06:13:46;;;;;;;10.63;9.52;;;12.70;99.90;;;;;;5081317;28;20174;-78
2022/10/19 06:16:14;;;;;;;10.45;8.85;;;12.70;99.90;;;;;;5079533;28;20171;-79
2022/10/19 06:18:41;;;;;;;8.52;7.72;;;12.80;99.90;;;;;;5078676;28;20553;-79
2022/10/19 06:21:15;;;;;;;9.63;8.50;;;12.80;99.90;;;;;;5085098;28;20545;-79
2022/10/19 06:23:41;;;;;;;9.05;8.23;;;12.80;99.90;;;;;;5088987;28;20174;-78
2022/10/19 06:26:10;;;;;;;11.95;8.77;;;12.70;99.90;;;;;;5079055;28;20186;-79
2022/10/19 06:28:38;;;;;;;9.63;7.95;;;12.70;99.90;;;;;;5085610;28;20215;-79
2022/10/19 06:31:07;;;;;;;14.05;8.38;;;12.70;99.90;;;;;;5086523;28;20179;-80
2022/10/19 06:33:33;;;;;;;9.77;7.65;;;12.80;99.90;;;;;;5094315;28;20189;-80
2022/10/19 06:36:09;;;;;;;8.85;8.07;;;12.80;99.90;;;;;;5081864;28;20652;-78
2022/10/19 06:38:35;;;;;;;8.85;8.05;;;12.80;99.90;;;;;;5090435;28;20185;-76
2022/10/19 06:43:51;;;;;;;10.15;8.90;;;12.90;99.90;;;;;;5096625;28;20179;-83
2022/10/19 06:46:19;;;;;;;10.88;9.30;;;12.70;99.90;;;;;;5094557;28;20191;-83
2022/10/19 06:49:01;;;;;;;9.38;8.48;;;12.70;99.90;;;;;;5103370;28;20199;-84
2022/10/19 06:51:37;;;;;;;11.55;8.63;;;12.80;99.90;;;;;;5088375;28;20209;-84
2022/10/19 06:54:03;;;;;;;9.63;8.73;;;12.70;99.90;;;;;;5090089;28;20201;-84
2022/10/19 06:56:28;;;;;;;8.93;7.88;;;12.90;99.90;;;;;;5092332;28;20174;-83
2022/10/19 06:58:54;;;;;;;16.05;9.00;;;13.00;99.90;;;;;;5096478;28;20186;-84
2022/10/19 07:01:20;;;;;;;9.10;8.10;;;13.00;99.90;;;;;;5092346;28;20197;-80
2022/10/19 07:03:46;;;;;;;9.40;8.50;;;13.00;99.90;;;;;;5083827;28;20634;-78
2022/10/19 07:06:12;;;;;;;10.63;9.35;;;13.10;99.90;;;;;;5085255;28;20273;-78
2022/10/19 07:08:40;;;;;;;8.60;7.80;;;13.20;99.90;;;;;;5080914;28;20261;-79
2022/10/19 07:11:13;;;;;;;10.30;7.65;;;13.40;99.90;;;;;;5080190;28;20171;-78
2022/10/19 07:13:39;;;;;;;7.60;6.65;;;13.50;99.90;;;;;;5080134;28;20171;-78
2022/10/19 07:16:10;;;;;;;6.88;6.28;;;13.60;99.90;;;;;;5082255;28;20212;-78
2022/10/19 07:18:37;;;;;;;7.07;6.38;;;13.80;99.90;;;;;;5086399;28;20648;-78
2022/10/19 07:21:05;;;;;;;7.68;6.97;;;14.00;99.90;;;;;;5090016;28;20215;-79
2022/10/19 07:23:33;;;;;;;7.03;6.32;;;14.20;99.90;;;;;;5088926;28;20713;-78
2022/10/19 07:26:08;;;;;;;6.72;6.13;;;14.30;99.90;;;;;;5097656;28;20179;-80
2022/10/19 07:28:34;;;;;;;7.55;6.85;;;14.50;99.90;;;;;;5091073;28;20229;-80
2022/10/19 07:31:07;;;;;;;6.53;6.03;;;14.60;99.90;;;;;;5080411;28;20439;-79
2022/10/19 07:33:33;;;;;;;6.32;5.75;;;14.50;99.90;;;;;;5083748;28;20293;-77
2022/10/19 07:36:02;;;;;;;5.88;5.38;;;14.70;99.90;;;;;;5085076;28;20207;-77
2022/10/19 07:38:29;;;;;;;4.80;4.50;;;15.00;99.90;;;;;;5081060;28;20189;-79
2022/10/19 07:41:06;;;;;;;4.70;4.40;;;15.20;99.90;;;;;;5092021;28;20676;-81
2022/10/19 07:43:32;;;;;;;5.45;5.05;;;15.20;99.90;;;;;;5093795;28;20196;-82
2022/10/19 07:46:00;;;;;;;5.47;5.05;;;15.40;99.90;;;;;;5098732;28;20198;-79
2022/10/19 07:48:25;;;;;;;4.85;4.45;;;15.50;99.90;;;;;;5098460;28;20296;-79
2022/10/19 07:50:51;;;;;;;5.38;4.95;;;15.50;99.90;;;;;;5097237;28;20194;-79
2022/10/19 07:53:17;;;;;;;5.35;4.85;;;15.50;99.90;;;;;;5102619;28;20591;-79
2022/10/19 07:55:42;;;;;;;5.43;5.03;;;15.60;99.90;;;;;;5098827;28;20198;-77
2022/10/19 07:58:08;;;;;;;5.97;5.38;;;15.70;99.90;;;;;;5082479;28;20695;-77
2022/10/19 08:00:33;;;;;;;5.22;4.82;;;15.80;99.90;;;;;;5088128;28;20186;-77
2022/10/19 08:02:59;;;;;;;5.88;5.30;;;15.90;99.90;;;;;;5079856;28;20178;-77
2022/10/19 08:05:24;;;;;;;5.05;4.70;;;16.30;99.90;;;;;;5084558;28;20254;-77
2022/10/19 08:07:50;;;;;;;4.88;4.47;;;16.20;99.90;;;;;;5083086;28;20214;-83
2022/10/19 08:10:16;;;;;;;5.97;4.50;;;16.20;99.90;;;;;;5078461;28;20182;-78
2022/10/19 08:12:41;;;;;;;5.10;4.72;;;16.60;99.90;;;;;;5084327;28;20183;-79
2022/10/19 08:15:07;;;;;;;4.78;4.47;;;16.80;99.90;;;;;;5083013;28;20277;-79
2022/10/19 08:17:37;;;;;;;5.10;4.78;;;17.00;99.90;;;;;;5081925;28;20795;-80
2022/10/19 08:20:05;;;;;;;5.30;4.90;;;16.80;99.90;;;;;;5090738;28;20186;-79
2022/10/19 08:22:30;;;;;;;4.68;4.38;;;16.40;99.90;;;;;;5087264;28;20186;-77
2022/10/19 08:24:56;;;;;;;5.15;4.75;;;16.40;99.90;;;;;;5087977;28;20225;-78
2022/10/19 08:27:22;;;;;;;5.40;5.00;;;16.60;99.90;;;;;;5081950;28;20214;-78
2022/10/19 08:29:47;;;;;;;5.00;4.60;;;16.90;99.90;;;;;;5077340;28;20179;-78
2022/10/19 08:32:13;;;;;;;5.10;4.70;;;17.00;99.90;;;;;;5087614;28;20557;-78
2022/10/19 08:34:38;;;;;;;4.82;4.53;;;16.90;99.90;;;;;;5092230;28;20758;-78
2022/10/19 08:37:04;;;;;;;5.80;5.38;;;17.10;99.90;;;;;;5085230;28;20193;-80
2022/10/19 08:39:30;;;;;;;5.93;5.40;;;17.10;99.90;;;;;;5085738;28;20214;-78
2022/10/19 08:42:46;;;;;;;5.50;5.10;;;17.50;99.90;;;;;;5085779;28;20183;-80
2022/10/19 08:45:39;;;;;;;5.93;5.45;;;17.70;99.90;;;;;;5076039;28;20611;-78
2022/10/19 08:48:27;;;;;;;6.00;5.30;;;18.30;99.90;;;;;;5089781;28;20205;-78
2022/10/19 08:50:54;;;;;;;6.60;5.97;;;18.80;99.90;;;;;;5090928;28;20179;-78
2022/10/19 08:53:42;;;;;;;5.38;4.97;;;19.00;99.90;;;;;;5095311;28;20195;-79
2022/10/19 08:56:22;;;;;;;5.90;5.50;;;19.10;99.90;;;;;;5091249;28;20176;-79
2022/10/19 08:58:53;;;;;;;6.15;5.65;;;19.20;99.90;;;;;;5092709;28;20208;-78
2022/10/19 09:01:40;;;;;;;5.28;4.97;;;18.90;99.90;;;;;;5088562;28;20189;-82
2022/10/19 09:04:05;;;;;;;6.07;5.63;;;18.70;99.90;;;;;;5092382;28;20199;-78
2022/10/19 09:06:38;;;;;;;6.03;5.53;;;18.80;99.90;;;;;;5089731;28;20585;-78
2022/10/19 09:09:04;;;;;;;5.47;5.07;;;18.70;99.90;;;;;;5084995;28;20215;-77
2022/10/19 09:11:34;;;;;;;4.93;4.63;;;18.60;99.90;;;;;;5081453;28;20186;-78
2022/10/19 09:14:09;;;;;;;6.55;6.05;;;18.60;99.90;;;;;;5089449;28;20259;-78
2022/10/19 09:16:34;;;;;;;6.40;5.80;;;18.50;99.90;;;;;;5107336;28;20183;-85
2022/10/19 09:19:01;;;;;;;6.88;5.45;;;18.20;99.90;;;;;;5104910;28;20356;-79
2022/10/19 09:21:49;;;;;;;8.38;5.88;;;18.20;99.90;;;;;;5089365;28;20193;-77
2022/10/19 09:24:28;;;;;;;6.10;5.53;;;18.10;99.90;;;;;;5101281;27;20199;-77
2022/10/19 09:27:06;;;;;;;6.47;5.63;;;18.20;99.90;;;;;;5091423;28;20649;-78
2022/10/19 09:29:40;;;;;;;8.43;6.97;;;18.00;99.90;;;;;;5089230;28;20182;-78
2022/10/19 09:32:13;;;;;;;5.63;5.22;;;17.90;99.90;;;;;;5087142;28;20179;-78
2022/10/19 09:34:52;;;;;;;6.15;5.70;;;18.20;99.90;;;;;;5088348;28;20198;-79
2022/10/19 09:37:20;;;;;;;6.53;6.03;;;18.60;99.90;;;;;;5088514;28;20183;-79
2022/10/19 09:39:46;;;;;;;6.18;5.68;;;18.90;99.90;;;;;;5097934;28;20179;-78
2022/10/19 09:42:21;;;;;;;6.40;5.82;;;18.80;99.90;;;;;;5090514;28;20224;-78
2022/10/19 09:44:53;;;;;;;6.00;5.60;;;18.80;99.90;;;;;;5082184;28;20213;-78
2022/10/19 09:47:38;;;;;;;6.20;5.70;;;18.80;99.90;;;;;;5088535;28;20214;-79
2022/10/19 09:50:14;;;;;;;6.10;5.60;;;18.60;99.90;;;;;;5087931;28;20432;-78
2022/10/19 09:52:42;;;;;;;5.03;4.72;;;18.30;99.90;;;;;;5085227;28;20171;-78
2022/10/19 09:55:20;;;;;;;5.57;5.18;;;18.00;99.90;;;;;;5084125;28;20190;-77
2022/10/19 09:57:48;;;;;;;5.20;4.55;;;17.90;99.90;;;;;;5080049;28;20549;-77
2022/10/19 10:00:18;;;;;;;4.32;4.13;;;18.10;99.90;;;;;;5082154;28;20220;-77
2022/10/19 10:02:53;;;;;;;5.10;4.20;;;18.40;99.90;;;;;;5088613;28;20261;-78
2022/10/19 10:05:28;;;;;;;4.45;4.15;;;18.80;99.90;;;;;;5088543;28;20232;-78
2022/10/19 10:07:54;;;;;;;4.55;4.25;;;19.10;99.90;;;;;;5087704;28;20237;-78
2022/10/19 10:10:24;;;;;;;4.22;3.92;;;19.40;99.90;;;;;;5085359;28;20185;-78
2022/10/19 10:12:51;;;;;;;4.82;4.25;;;19.40;99.90;;;;;;5080599;28;20179;-75
2022/10/19 10:15:22;;;;;;;5.93;3.90;;;19.40;99.90;;;;;;5081078;28;20214;-75
2022/10/19 10:17:49;;;;;;;4.32;4.03;;;19.50;99.90;;;;;;5086517;28;20645;-77
2022/10/19 10:20:22;;;;;;;5.35;4.72;;;19.90;99.90;;;;;;5086127;28;20591;-79
2022/10/19 10:22:56;;;;;;;4.32;3.92;;;20.10;99.90;;;;;;5093260;28;20183;-76
2022/10/19 10:25:25;;;;;;;5.53;4.03;;;20.30;99.90;;;;;;5084655;28;20191;-77
2022/10/19 10:27:57;;;;;;;4.22;3.92;;;20.00;99.90;;;;;;5079978;28;20203;-76
2022/10/19 10:30:23;;;;;;;3.97;3.67;;;19.80;99.90;;;;;;5086344;28;20179;-77
2022/10/19 10:32:52;;;;;;;4.38;4.10;;;20.10;99.90;;;;;;5087515;28;20171;-77
2022/10/19 10:35:36;;;;;;;4.30;3.90;;;20.50;99.90;;;;;;5085182;28;20666;-77
2022/10/19 10:38:17;;;;;;;4.47;3.75;;;20.80;99.90;;;;;;5083042;28;20193;-75
2022/10/19 10:40:51;;;;;;;3.83;3.53;;;20.50;99.90;;;;;;5076364;28;20771;-74
2022/10/19 10:43:21;;;;;;;3.72;3.47;;;20.70;99.90;;;;;;5087574;28;20228;-77
2022/10/19 10:45:52;;;;;;;3.33;3.13;;;22.60;99.90;;;;;;5079644;28;20759;-74
2022/10/19 10:48:21;;;;;;;3.50;3.20;;;25.80;99.90;;;;;;5076753;28;20233;-73
2022/10/19 10:50:47;;;;;;;3.17;2.97;;;27.60;96.70;;;;;;5073574;28;20557;-74
2022/10/19 10:53:45;;;;;;;3.55;3.35;;;28.70;91.40;;;;;;5076992;28;20183;-75
2022/10/19 10:56:32;;;;;;;3.45;3.25;;;30.30;82.10;;;;;;5068256;28;20183;-77
2022/10/19 10:59:09;;;;;;;2.75;2.65;;;29.80;77.70;;;;;;5075943;28;20179;-78
2022/10/19 11:01:47;;;;;;;2.55;2.35;;;28.70;78.70;;;;;;5082964;28;20201;-79
2022/10/19 11:04:22;;;;;;;2.97;2.78;;;27.30;82.00;;;;;;5085295;28;20245;-77
2022/10/19 11:06:55;;;;;;;2.75;2.55;;;26.50;84.60;;;;;;5080034;28;20177;-75
2022/10/19 11:09:34;;;;;;;3.20;3.00;;;25.70;86.20;;;;;;5088270;28;20174;-80
2022/10/19 11:12:07;;;;;;;3.60;3.30;;;25.20;86.90;;;;;;5083097;28;20185;-79
2022/10/19 11:14:52;;;;;;;3.50;3.20;;;25.00;88.50;;;;;;5084297;28;20704;-79
2022/10/19 11:17:22;;;;;;;3.35;3.15;;;25.20;88.90;;;;;;5088602;28;20179;-75
2022/10/19 11:19:52;;;;;;;4.15;3.80;;;27.40;83.70;;;;;;5077884;28;20225;-76
2022/10/19 11:22:57;;;;;;;3.17;2.97;;;29.70;75.50;;;;;;5085115;28;20187;-75
2022/10/19 11:25:48;;;;;;;3.67;3.47;;;31.00;70.00;;;;;;5079668;28;20229;-76
2022/10/19 11:28:41;;;;;;;3.40;3.20;;;30.30;66.50;;;;;;5077177;28;20252;-75
2022/10/19 11:31:29;;;;;;;3.42;3.22;;;27.90;72.60;;;;;;5082738;28;20189;-76
2022/10/19 11:34:18;;;;;;;3.30;3.10;;;27.30;74.90;;;;;;5077358;28;20194;-76
2022/10/19 11:37:00;;;;;;;3.00;2.80;;;26.20;78.50;;;;;;5077930;28;20682;-77
2022/10/19 11:39:32;;;;;;;3.95;3.65;;;26.30;78.40;;;;;;5079066;28;20189;-77
2022/10/19 11:42:12;;;;;;;3.53;3.33;;;25.90;78.80;;;;;;5079939;28;20262;-76
2022/10/19 11:45:11;;;;;;;4.40;4.07;;;26.10;80.60;;;;;;5078413;28;20206;-76
2022/10/19 11:48:13;;;;;;;4.05;3.83;;;28.50;73.90;;;;;;5079585;28;20202;-77
2022/10/19 11:50:53;;;;;;;4.93;3.60;;;30.60;67.30;;;;;;5079464;28;20513;-73
2022/10/19 11:53:30;;;;;;;3.85;3.65;;;32.70;61.50;;;;;;5079892;28;20839;-74
2022/10/19 11:56:05;;;;;;;4.03;3.65;;;34.40;56.90;;;;;;5083200;28;20205;-74
2022/10/19 11:58:51;;;;;;;3.63;3.42;;;35.40;54.80;;;;;;5081757;28;20174;-75
2022/10/19 12:01:35;;;;;;;4.00;3.70;;;36.20;51.80;;;;;;5098820;28;20182;-76
2022/10/19 12:04:21;;;;;;;4.43;4.03;;;36.10;51.20;;;;;;5080255;28;20213;-74
2022/10/19 12:07:02;;;;;;;4.38;4.05;;;34.60;51.60;;;;;;5082292;28;20187;-75
2022/10/19 12:09:52;;;;;;;3.65;3.45;;;32.90;54.40;;;;;;5087564;28;20210;-74
2022/10/19 12:12:34;;;;;;;3.70;3.50;;;33.50;54.70;;;;;;5083074;28;20581;-75
2022/10/19 12:15:22;;;;;;;7.72;3.78;;;34.30;52.60;;;;;;5083418;28;20228;-74
2022/10/19 12:17:50;;;;;;;3.60;3.40;;;35.20;51.50;;;;;;5088333;28;20170;-75
2022/10/19 12:20:28;;;;;;;4.63;3.80;;;36.00;50.00;;;;;;5084547;28;20185;-74
2022/10/19 12:22:56;;;;;;;3.72;3.53;;;36.20;49.00;;;;;;5083872;28;20219;-74
2022/10/19 12:25:23;;;;;;;3.78;3.50;;;36.50;48.50;;;;;;5081894;28;20194;-73
2022/10/19 12:27:50;;;;;;;3.33;3.13;;;36.50;48.30;;;;;;5079522;28;20202;-74
2022/10/19 12:30:18;;;;;;;3.47;3.28;;;36.90;47.90;;;;;;5087870;28;20636;-74
2022/10/19 12:33:24;;;;;;;3.40;3.20;;;36.80;48.20;;;;;;5082550;28;20214;-74
2022/10/19 12:36:01;;;;;;;4.32;2.95;;;36.40;48.20;;;;;;5081109;28;20206;-74
2022/10/19 12:38:51;;;;;;;5.05;3.38;;;35.10;48.80;;;;;;5086988;28;20197;-74
2022/10/19 12:41:24;;;;;;;3.80;3.42;;;33.20;50.20;;;;;;5085873;28;20192;-74
2022/10/19 12:44:20;;;;;;;3.70;3.25;;;32.20;52.10;;;;;;5087744;28;20192;-75
2022/10/19 12:46:50;;;;;;;4.00;3.67;;;30.80;54.40;;;;;;5081884;28;20187;-75
2022/10/19 12:49:27;;;;;;;4.70;3.70;;;29.70;56.50;;;;;;5083437;28;20614;-75
2022/10/19 12:51:56;;;;;;;3.83;3.55;;;28.70;58.10;;;;;;5077560;28;20190;-73
2022/10/19 12:54:31;;;;;;;3.90;3.65;;;27.90;60.20;;;;;;5079076;28;20629;-74
2022/10/19 12:57:00;;;;;;;3.63;3.13;;;27.30;62.00;;;;;;5075426;28;20174;-74
2022/10/19 12:59:30;;;;;;;3.58;2.95;;;26.50;63.80;;;;;;5077800;28;20189;-74
2022/10/19 13:01:56;;;;;;;5.18;3.17;;;26.40;64.80;;;;;;5074948;28;20178;-74
2022/10/19 13:04:31;;;;;;;3.88;3.58;;;25.90;66.10;;;;;;5074650;28;20290;-74
2022/10/19 13:06:57;;;;;;;3.55;3.30;;;25.20;66.90;;;;;;5077007;28;20287;-74
2022/10/19 13:09:30;;;;;;;2.97;2.78;;;25.00;68.40;;;;;;5085692;28;20633;-75